Time;durP1;ratioP1;P1;durP2;ratioP2;P2;SDS_P1;SDS_P2;PMS_P1;PMS_P2;Temp;Humidity;BMP_temperature;BMP_pressure;BME280_temperature;BME280_humidity;BME280_pressure;Samples;Min_cycle;Max_cycle;Signal;HPM_P1;HPM_P2
2021/09/11 00:00:07;;;;;;;1.60;1.30;;;20.50;99.90;;;;;;5074010;28;20416;-72
2021/09/11 00:02:34;;;;;;;2.00;1.30;;;20.50;99.90;;;;;;5074703;28;20415;-71
2021/09/11 00:05:01;;;;;;;2.00;1.37;;;20.50;99.90;;;;;;5073948;28;20459;-72
2021/09/11 00:07:29;;;;;;;1.80;1.33;;;20.50;99.90;;;;;;5075319;28;20485;-72
2021/09/11 00:09:57;;;;;;;1.50;1.30;;;20.50;99.90;;;;;;5075657;28;20435;-71
2021/09/11 00:12:23;;;;;;;1.60;1.20;;;20.50;99.90;;;;;;5076237;28;20428;-72
2021/09/11 00:14:50;;;;;;;1.70;1.30;;;20.40;99.90;;;;;;5075833;28;20485;-71
2021/09/11 00:17:19;;;;;;;2.33;1.40;;;20.40;99.90;;;;;;5075862;28;20467;-72
2021/09/11 00:19:45;;;;;;;2.00;1.30;;;20.40;99.90;;;;;;5074583;28;20739;-72
2021/09/11 00:22:12;;;;;;;1.83;1.30;;;20.40;99.90;;;;;;5075182;28;20448;-73
2021/09/11 00:24:39;;;;;;;1.80;1.48;;;20.30;99.90;;;;;;5072882;28;21096;-73
2021/09/11 00:27:06;;;;;;;2.30;1.38;;;20.30;99.90;;;;;;5074894;28;20462;-72
2021/09/11 00:29:37;;;;;;;1.55;1.40;;;20.30;99.90;;;;;;5074977;28;20726;-71
2021/09/11 00:32:05;;;;;;;1.60;1.30;;;20.30;99.90;;;;;;5075359;28;20423;-71
2021/09/11 00:34:33;;;;;;;1.45;1.27;;;20.40;99.90;;;;;;5074726;28;20489;-72
2021/09/11 00:37:00;;;;;;;1.70;1.60;;;20.40;99.90;;;;;;5074848;28;20623;-72
2021/09/11 00:39:27;;;;;;;1.67;1.50;;;20.40;99.90;;;;;;5074391;28;20525;-71
2021/09/11 00:41:55;;;;;;;1.60;1.50;;;20.30;99.90;;;;;;5075063;28;20794;-71
2021/09/11 00:44:22;;;;;;;1.90;1.50;;;20.30;99.90;;;;;;5075005;28;20470;-70
2021/09/11 00:46:48;;;;;;;1.50;1.40;;;20.30;99.90;;;;;;5073883;28;20481;-71
2021/09/11 00:49:15;;;;;;;1.70;1.27;;;20.30;99.90;;;;;;5074824;28;20501;-72
2021/09/11 00:51:45;;;;;;;1.60;1.38;;;20.30;99.90;;;;;;5074525;28;20419;-71
2021/09/11 00:54:12;;;;;;;2.80;1.30;;;20.30;99.90;;;;;;5072000;28;20929;-71
2021/09/11 00:56:39;;;;;;;1.90;1.50;;;20.30;99.90;;;;;;5073046;28;20501;-71
2021/09/11 00:59:06;;;;;;;2.00;1.20;;;20.40;99.90;;;;;;5072762;28;20522;-71
2021/09/11 01:01:33;;;;;;;1.70;1.50;;;20.50;99.90;;;;;;5073186;28;20776;-72
2021/09/11 01:04:00;;;;;;;1.70;1.38;;;20.50;99.90;;;;;;5073214;28;20439;-71
2021/09/11 01:06:27;;;;;;;1.98;1.70;;;20.40;99.90;;;;;;5073398;28;20427;-70
2021/09/11 01:08:55;;;;;;;1.50;1.23;;;20.30;99.90;;;;;;5072676;28;20439;-73
2021/09/11 01:11:22;;;;;;;1.70;1.30;;;20.30;99.90;;;;;;5072464;28;20415;-71
2021/09/11 01:13:49;;;;;;;1.60;1.50;;;20.30;99.90;;;;;;5073197;28;20489;-71
2021/09/11 01:16:16;;;;;;;1.60;1.40;;;20.20;99.90;;;;;;5074077;28;20495;-71
2021/09/11 01:18:45;;;;;;;2.00;1.50;;;20.10;99.90;;;;;;5074810;28;20470;-71
2021/09/11 01:21:11;;;;;;;1.70;1.38;;;20.00;99.90;;;;;;5073890;28;20419;-71
2021/09/11 01:23:41;;;;;;;3.20;1.40;;;20.00;99.90;;;;;;5075789;28;20534;-71
2021/09/11 01:26:09;;;;;;;1.90;1.30;;;20.00;99.90;;;;;;5074218;28;20420;-71
2021/09/11 01:28:35;;;;;;;1.80;1.50;;;20.00;99.90;;;;;;5075320;28;20459;-70
2021/09/11 01:31:04;;;;;;;2.13;1.50;;;20.00;99.90;;;;;;5075044;28;20475;-70
2021/09/11 01:33:31;;;;;;;2.00;1.40;;;19.90;99.90;;;;;;5075345;28;20435;-72
2021/09/11 01:35:58;;;;;;;2.08;1.60;;;19.90;99.90;;;;;;5075015;28;20420;-71
2021/09/11 01:38:25;;;;;;;2.50;1.40;;;20.00;99.90;;;;;;5074958;28;20788;-72
2021/09/11 01:40:53;;;;;;;1.50;1.30;;;20.00;99.90;;;;;;5074783;28;20421;-70
2021/09/11 01:43:28;;;;;;;1.58;1.27;;;19.90;99.90;;;;;;5074523;28;20871;-71
2021/09/11 01:45:55;;;;;;;1.77;1.40;;;19.90;99.90;;;;;;5074924;28;20473;-72
2021/09/11 01:48:22;;;;;;;1.35;1.20;;;19.80;99.90;;;;;;5073924;28;20590;-71
2021/09/11 01:50:49;;;;;;;1.90;1.10;;;19.70;99.90;;;;;;5072919;28;20485;-72
2021/09/11 01:53:16;;;;;;;1.50;1.30;;;19.70;99.90;;;;;;5072978;28;20485;-71
2021/09/11 01:55:43;;;;;;;1.60;1.20;;;19.60;99.90;;;;;;5073013;28;20435;-71
2021/09/11 01:58:11;;;;;;;1.40;1.20;;;19.60;99.90;;;;;;5073013;28;20871;-72
2021/09/11 02:00:39;;;;;;;1.60;1.30;;;19.60;99.90;;;;;;5072609;28;20485;-72
2021/09/11 02:03:06;;;;;;;1.60;1.30;;;19.50;99.90;;;;;;5071966;28;20435;-72
2021/09/11 02:05:34;;;;;;;2.17;1.42;;;19.50;99.90;;;;;;5074831;28;20419;-70
2021/09/11 02:08:01;;;;;;;2.40;1.20;;;19.50;99.90;;;;;;5076712;28;20510;-71
2021/09/11 02:10:29;;;;;;;1.90;1.20;;;19.50;99.90;;;;;;5076860;28;20427;-71
2021/09/11 02:12:57;;;;;;;1.55;1.30;;;19.50;99.90;;;;;;5076920;28;20496;-71
2021/09/11 02:15:25;;;;;;;1.50;1.30;;;19.50;99.90;;;;;;5075136;28;20430;-70
2021/09/11 02:17:52;;;;;;;1.50;1.20;;;19.50;99.90;;;;;;5074754;28;20515;-71
2021/09/11 02:20:19;;;;;;;2.30;1.30;;;19.50;99.90;;;;;;5074139;28;20419;-72
2021/09/11 02:22:46;;;;;;;1.60;1.40;;;19.40;99.90;;;;;;5074992;28;20536;-72
2021/09/11 02:25:13;;;;;;;1.40;1.20;;;19.40;99.90;;;;;;5074156;28;20514;-72
2021/09/11 02:27:41;;;;;;;1.70;1.30;;;19.40;99.90;;;;;;5075648;28;20862;-71
2021/09/11 02:30:09;;;;;;;1.77;1.23;;;19.40;99.90;;;;;;5075659;28;20423;-72
2021/09/11 02:32:37;;;;;;;1.75;1.30;;;19.40;99.90;;;;;;5075227;28;20447;-70
2021/09/11 02:35:05;;;;;;;3.33;1.42;;;19.40;99.90;;;;;;5075198;28;20462;-71
2021/09/11 02:37:32;;;;;;;2.20;1.30;;;19.40;99.90;;;;;;5076595;28;20466;-71
2021/09/11 02:39:59;;;;;;;1.70;1.40;;;19.40;99.90;;;;;;5078171;28;20839;-71
2021/09/11 02:42:26;;;;;;;1.98;1.30;;;19.30;99.90;;;;;;5077665;28;20424;-71
2021/09/11 02:44:53;;;;;;;1.77;1.30;;;19.30;99.90;;;;;;5076768;28;20538;-70
2021/09/11 02:47:20;;;;;;;2.00;1.30;;;19.30;99.90;;;;;;5077463;28;20800;-71
2021/09/11 02:49:48;;;;;;;1.92;1.30;;;19.30;99.90;;;;;;5077940;28;20455;-71
2021/09/11 02:52:15;;;;;;;1.63;1.30;;;19.30;99.90;;;;;;5076776;28;20423;-70
2021/09/11 02:54:43;;;;;;;1.60;1.30;;;19.40;99.90;;;;;;5076680;28;20517;-71
2021/09/11 02:57:10;;;;;;;2.55;1.50;;;19.40;99.90;;;;;;5077478;28;20419;-70
2021/09/11 02:59:37;;;;;;;1.60;1.30;;;19.50;99.90;;;;;;5077441;28;20526;-71
2021/09/11 03:02:04;;;;;;;2.72;1.30;;;19.50;99.90;;;;;;5077429;28;20481;-71
2021/09/11 03:04:31;;;;;;;1.30;1.10;;;19.50;99.90;;;;;;5078031;28;20843;-71
2021/09/11 03:07:00;;;;;;;1.40;1.20;;;19.60;99.90;;;;;;5076990;28;20481;-72
2021/09/11 03:09:27;;;;;;;1.50;1.25;;;19.50;99.90;;;;;;5076806;28;20443;-71
2021/09/11 03:11:53;;;;;;;1.55;1.30;;;19.50;99.90;;;;;;5076560;28;20454;-72
2021/09/11 03:14:20;;;;;;;1.88;1.20;;;19.40;99.90;;;;;;5077368;28;20767;-72
2021/09/11 03:16:47;;;;;;;1.45;1.20;;;19.30;99.90;;;;;;5076674;28;20857;-72
2021/09/11 03:19:14;;;;;;;1.30;1.10;;;19.30;99.90;;;;;;5077592;28;20455;-71
2021/09/11 03:21:41;;;;;;;1.42;1.10;;;19.30;99.90;;;;;;5077668;28;20748;-71
2021/09/11 03:24:09;;;;;;;1.60;1.30;;;19.30;99.90;;;;;;5075546;28;20432;-72
2021/09/11 03:26:36;;;;;;;1.50;1.05;;;19.30;99.90;;;;;;5077643;28;20489;-72
2021/09/11 03:29:03;;;;;;;1.30;1.00;;;19.20;99.90;;;;;;5076795;28;20454;-71
2021/09/11 03:31:30;;;;;;;1.20;1.00;;;19.30;99.90;;;;;;5077163;28;20764;-71
2021/09/11 03:33:57;;;;;;;1.30;1.00;;;19.40;99.90;;;;;;5076342;28;20431;-71
2021/09/11 03:36:24;;;;;;;1.45;1.20;;;19.40;99.90;;;;;;5076221;28;20506;-71
2021/09/11 03:38:51;;;;;;;1.40;1.10;;;19.50;99.90;;;;;;5076478;28;20791;-71
2021/09/11 03:41:19;;;;;;;1.30;1.10;;;19.40;99.90;;;;;;5076109;28;20426;-71
2021/09/11 03:43:46;;;;;;;1.63;1.00;;;19.50;99.90;;;;;;5075864;28;20493;-71
2021/09/11 03:46:13;;;;;;;1.40;1.10;;;19.50;99.90;;;;;;5076487;28;20877;-72
2021/09/11 03:48:40;;;;;;;1.75;1.00;;;19.50;99.90;;;;;;5075299;28;20488;-71
2021/09/11 03:51:08;;;;;;;1.30;1.00;;;19.50;99.90;;;;;;5074173;28;20519;-71
2021/09/11 03:53:35;;;;;;;1.85;1.10;;;19.40;99.90;;;;;;5075137;28;20428;-71
2021/09/11 03:56:02;;;;;;;1.35;1.00;;;19.40;99.90;;;;;;5074926;28;20429;-71
2021/09/11 03:58:30;;;;;;;2.30;1.00;;;19.50;99.90;;;;;;5076042;28;20485;-71
2021/09/11 04:00:58;;;;;;;1.30;1.00;;;19.50;99.90;;;;;;5075172;28;20451;-71
2021/09/11 04:03:25;;;;;;;1.35;1.00;;;19.50;99.90;;;;;;5075149;28;20432;-71
2021/09/11 04:05:52;;;;;;;1.20;1.00;;;19.50;99.90;;;;;;5075129;28;20715;-71
2021/09/11 04:08:20;;;;;;;1.30;1.00;;;19.50;99.90;;;;;;5074091;28;20427;-71
2021/09/11 04:10:47;;;;;;;1.42;1.00;;;19.50;99.90;;;;;;5074100;28;20438;-71
2021/09/11 04:13:14;;;;;;;1.60;1.20;;;19.30;99.90;;;;;;5073661;28;20953;-71
2021/09/11 04:15:42;;;;;;;1.20;1.08;;;19.30;99.90;;;;;;5071891;28;20451;-71
2021/09/11 04:18:09;;;;;;;1.25;1.00;;;19.30;99.90;;;;;;5071114;28;20845;-71
2021/09/11 04:20:36;;;;;;;1.55;0.90;;;19.30;99.90;;;;;;5071809;28;20692;-72
2021/09/11 04:23:03;;;;;;;1.60;1.10;;;19.30;99.90;;;;;;5072098;28;20462;-71
2021/09/11 04:25:30;;;;;;;1.90;1.02;;;19.40;99.90;;;;;;5072304;28;20712;-71
2021/09/11 04:27:57;;;;;;;1.10;0.90;;;19.50;99.90;;;;;;5073225;28;20518;-71
2021/09/11 04:30:24;;;;;;;1.20;0.90;;;19.60;99.90;;;;;;5074646;28;20436;-72
2021/09/11 04:32:52;;;;;;;1.20;1.00;;;19.50;99.90;;;;;;5075128;28;20865;-71
2021/09/11 04:35:19;;;;;;;1.80;1.00;;;19.50;99.90;;;;;;5074538;28;20862;-72
2021/09/11 04:37:46;;;;;;;1.30;1.00;;;19.40;99.90;;;;;;5073471;28;20455;-71
2021/09/11 04:40:15;;;;;;;1.30;1.00;;;19.30;99.90;;;;;;5075003;28;20420;-70
2021/09/11 04:42:42;;;;;;;1.58;1.00;;;19.30;99.90;;;;;;5074302;28;20423;-71
2021/09/11 04:45:09;;;;;;;2.20;0.90;;;19.30;99.90;;;;;;5073711;28;20773;-71
2021/09/11 04:47:36;;;;;;;2.63;1.08;;;19.20;99.90;;;;;;5074146;28;20419;-71
2021/09/11 04:50:06;;;;;;;1.20;0.90;;;19.20;99.90;;;;;;5074717;28;20500;-70
2021/09/11 04:52:33;;;;;;;1.60;0.90;;;19.20;99.90;;;;;;5073769;28;20789;-72
2021/09/11 04:55:00;;;;;;;1.40;0.90;;;19.20;99.90;;;;;;5072292;28;20471;-71
2021/09/11 04:57:27;;;;;;;1.20;0.90;;;19.30;99.90;;;;;;5070989;28;20511;-72
2021/09/11 04:59:54;;;;;;;1.10;0.90;;;19.40;99.90;;;;;;5072072;28;20428;-71
2021/09/11 05:02:20;;;;;;;1.00;0.80;;;19.40;99.90;;;;;;5072132;28;20810;-71
2021/09/11 05:04:47;;;;;;;1.20;0.85;;;19.40;99.90;;;;;;5072309;28;20521;-71
2021/09/11 05:07:16;;;;;;;1.60;0.80;;;19.30;99.90;;;;;;5071978;28;20415;-71
2021/09/11 05:09:43;;;;;;;2.65;0.93;;;19.30;99.90;;;;;;5073326;28;20431;-70
2021/09/11 05:12:10;;;;;;;1.20;0.90;;;19.20;99.90;;;;;;5074415;28;20415;-72
2021/09/11 05:14:37;;;;;;;1.00;0.82;;;19.30;99.90;;;;;;5074045;28;20489;-72
2021/09/11 05:17:05;;;;;;;1.20;0.80;;;19.30;99.90;;;;;;5074195;28;20830;-72
2021/09/11 05:19:31;;;;;;;1.15;0.80;;;19.60;99.90;;;;;;5072025;28;20956;-71
2021/09/11 05:21:58;;;;;;;1.50;0.90;;;19.80;99.90;;;;;;5071347;28;20501;-73
2021/09/11 05:24:27;;;;;;;1.15;0.80;;;19.80;99.90;;;;;;5070115;28;20463;-72
2021/09/11 05:26:54;;;;;;;0.90;0.80;;;19.80;99.90;;;;;;5074062;28;20484;-73
2021/09/11 05:29:21;;;;;;;1.45;0.82;;;19.60;99.90;;;;;;5072613;28;20463;-72
2021/09/11 05:31:47;;;;;;;1.45;0.88;;;19.80;99.90;;;;;;5073871;28;20426;-73
2021/09/11 05:34:15;;;;;;;1.20;0.80;;;19.80;99.90;;;;;;5072647;28;20435;-72
2021/09/11 05:36:42;;;;;;;1.70;0.90;;;19.90;99.90;;;;;;5072902;28;20727;-72
2021/09/11 05:39:09;;;;;;;0.98;0.77;;;20.00;99.90;;;;;;5071903;28;20472;-72
2021/09/11 05:41:37;;;;;;;1.00;0.70;;;20.00;99.90;;;;;;5075846;28;20419;-73
2021/09/11 05:44:04;;;;;;;1.30;0.80;;;20.00;99.90;;;;;;5076211;28;20463;-72
2021/09/11 05:46:31;;;;;;;0.90;0.80;;;20.00;99.90;;;;;;5077466;28;20481;-72
2021/09/11 05:48:58;;;;;;;1.10;0.80;;;19.80;99.90;;;;;;5075817;28;20459;-70
2021/09/11 05:51:25;;;;;;;1.20;0.80;;;19.60;99.90;;;;;;5075825;28;20477;-71
2021/09/11 05:53:52;;;;;;;1.50;1.40;;;19.60;99.90;;;;;;5074960;28;20824;-71
2021/09/11 05:56:19;;;;;;;1.40;0.70;;;19.50;99.90;;;;;;5074193;28;20466;-71
2021/09/11 05:58:47;;;;;;;1.10;0.80;;;19.50;99.90;;;;;;5073247;28;20480;-71
2021/09/11 06:01:14;;;;;;;1.30;0.90;;;19.50;99.90;;;;;;5071692;28;20565;-71
2021/09/11 06:03:41;;;;;;;1.08;0.80;;;19.70;99.90;;;;;;5073375;28;20427;-71
2021/09/11 06:06:08;;;;;;;0.90;0.70;;;19.80;99.90;;;;;;5075898;28;20843;-73
2021/09/11 06:08:35;;;;;;;2.22;0.90;;;19.80;99.90;;;;;;5074121;28;20558;-71
2021/09/11 06:11:02;;;;;;;1.00;0.70;;;19.80;99.90;;;;;;5075759;28;20762;-72
2021/09/11 06:13:29;;;;;;;0.90;0.70;;;19.80;99.90;;;;;;5072496;28;20866;-72
2021/09/11 06:15:57;;;;;;;1.20;0.80;;;19.70;99.90;;;;;;5074607;28;20510;-71
2021/09/11 06:18:24;;;;;;;1.00;0.70;;;19.70;99.90;;;;;;5072276;28;20632;-72
2021/09/11 06:20:51;;;;;;;1.20;0.80;;;19.70;99.90;;;;;;5076838;28;20855;-71
2021/09/11 06:23:18;;;;;;;0.93;0.80;;;19.70;99.90;;;;;;5074246;28;20478;-71
2021/09/11 06:25:45;;;;;;;0.90;0.70;;;19.70;99.90;;;;;;5073705;28;20510;-70
2021/09/11 06:28:12;;;;;;;0.90;0.70;;;19.60;99.90;;;;;;5074539;28;20940;-70
2021/09/11 06:30:39;;;;;;;0.90;0.70;;;19.50;99.90;;;;;;5076461;28;20731;-71
2021/09/11 06:33:07;;;;;;;1.10;0.80;;;19.50;99.90;;;;;;5076411;28;20493;-70
2021/09/11 06:35:34;;;;;;;1.40;0.80;;;19.50;99.90;;;;;;5075731;28;20439;-70
2021/09/11 06:38:01;;;;;;;1.10;0.80;;;19.70;99.90;;;;;;5075378;28;20459;-71
2021/09/11 06:40:28;;;;;;;0.97;0.70;;;20.00;99.90;;;;;;5074892;28;20838;-71
2021/09/11 06:42:55;;;;;;;0.90;0.75;;;20.30;99.90;;;;;;5073462;28;20567;-72
2021/09/11 06:45:22;;;;;;;1.00;0.70;;;20.50;99.90;;;;;;5072075;28;20450;-71
2021/09/11 06:47:49;;;;;;;0.90;0.70;;;20.50;99.90;;;;;;5072744;28;20451;-71
2021/09/11 06:50:18;;;;;;;1.00;0.70;;;20.50;99.90;;;;;;5073034;28;20478;-73
2021/09/11 06:52:44;;;;;;;0.93;0.70;;;20.50;99.90;;;;;;5065411;28;20473;-71
2021/09/11 06:55:12;;;;;;;1.20;0.60;;;20.50;99.90;;;;;;5073197;28;20517;-72
2021/09/11 06:57:39;;;;;;;0.70;0.60;;;20.40;99.90;;;;;;5075739;28;20424;-73
2021/09/11 07:00:07;;;;;;;0.80;0.60;;;20.30;99.90;;;;;;5075099;28;20454;-72
2021/09/11 07:02:34;;;;;;;0.90;0.60;;;20.30;99.90;;;;;;5076659;28;20497;-72
2021/09/11 07:05:01;;;;;;;0.80;0.60;;;20.30;99.90;;;;;;5076162;28;20432;-72
2021/09/11 07:07:32;;;;;;;0.80;0.50;;;20.20;99.90;;;;;;5074557;28;20900;-71
2021/09/11 07:09:59;;;;;;;1.50;0.60;;;20.50;99.90;;;;;;5075261;28;20492;-71
2021/09/11 07:12:26;;;;;;;1.70;0.60;;;20.60;99.90;;;;;;5074785;28;20513;-71
2021/09/11 07:14:53;;;;;;;1.02;0.50;;;20.80;99.90;;;;;;5071111;28;20431;-71
2021/09/11 07:17:20;;;;;;;1.20;0.90;;;20.80;99.90;;;;;;5075889;28;20424;-71
2021/09/11 07:19:47;;;;;;;1.23;0.50;;;20.80;99.90;;;;;;5073828;28;20567;-71
2021/09/11 07:22:13;;;;;;;1.30;0.70;;;20.90;99.90;;;;;;5070502;28;20780;-72
2021/09/11 07:24:42;;;;;;;1.40;0.60;;;20.90;99.90;;;;;;5070741;28;20462;-72
2021/09/11 07:27:09;;;;;;;2.00;0.50;;;20.60;99.90;;;;;;5060935;28;20782;-72
2021/09/11 07:29:36;;;;;;;0.80;0.60;;;20.40;99.90;;;;;;5074035;28;20454;-74
2021/09/11 07:32:06;;;;;;;2.40;0.60;;;20.50;99.90;;;;;;5067433;28;20459;-74
2021/09/11 07:34:33;;;;;;;0.80;0.60;;;20.70;99.90;;;;;;5067582;28;20447;-74
2021/09/11 07:36:59;;;;;;;1.00;0.57;;;20.80;99.90;;;;;;5069948;28;20524;-74
2021/09/11 07:39:26;;;;;;;0.80;0.50;;;20.90;99.90;;;;;;5068974;28;20819;-72
2021/09/11 07:41:55;;;;;;;0.70;0.50;;;20.90;99.90;;;;;;5068297;28;20461;-72
2021/09/11 07:44:22;;;;;;;0.70;0.50;;;20.90;99.90;;;;;;5062424;28;20870;-72
2021/09/11 07:46:49;;;;;;;0.70;0.50;;;21.00;99.90;;;;;;5061846;28;20429;-73
2021/09/11 07:49:16;;;;;;;0.73;0.50;;;20.90;99.90;;;;;;5058860;28;21040;-76
2021/09/11 07:51:43;;;;;;;0.70;0.50;;;20.90;99.90;;;;;;5073573;28;20435;-75
2021/09/11 07:54:10;;;;;;;0.60;0.40;;;21.10;99.90;;;;;;5079007;28;20485;-75
2021/09/11 07:56:37;;;;;;;1.20;0.70;;;21.30;99.90;;;;;;5070762;28;20477;-74
2021/09/11 07:59:06;;;;;;;1.00;0.50;;;21.30;99.90;;;;;;5073508;28;20435;-75
2021/09/11 08:01:33;;;;;;;0.90;0.60;;;21.20;99.90;;;;;;5074345;28;20486;-73
2021/09/11 08:04:00;;;;;;;0.90;0.50;;;21.20;99.90;;;;;;5074783;28;20431;-74
2021/09/11 08:06:26;;;;;;;0.80;0.50;;;21.20;99.90;;;;;;5075017;28;20423;-75
2021/09/11 08:08:53;;;;;;;1.30;0.60;;;21.20;99.90;;;;;;5074809;28;20778;-75
2021/09/11 08:11:20;;;;;;;0.80;0.50;;;21.30;99.90;;;;;;5075191;28;20427;-75
2021/09/11 08:13:49;;;;;;;0.60;0.45;;;21.60;99.90;;;;;;5073513;28;20482;-75
2021/09/11 08:16:18;;;;;;;0.80;0.60;;;21.90;99.90;;;;;;5072383;28;20449;-74
2021/09/11 08:18:45;;;;;;;0.70;0.50;;;21.90;99.90;;;;;;5072112;28;20435;-75
2021/09/11 08:21:12;;;;;;;1.40;0.50;;;21.80;99.90;;;;;;5073742;28;20431;-74
2021/09/11 08:23:41;;;;;;;1.42;0.50;;;21.70;99.90;;;;;;5073045;28;20431;-74
2021/09/11 08:26:08;;;;;;;0.70;0.50;;;21.60;99.90;;;;;;5072504;28;20435;-74
2021/09/11 08:28:35;;;;;;;0.70;0.50;;;21.60;99.90;;;;;;5074730;28;20427;-74
2021/09/11 08:31:02;;;;;;;0.80;0.50;;;21.80;99.90;;;;;;5071847;28;20432;-74
2021/09/11 08:33:31;;;;;;;0.70;0.50;;;21.90;99.90;;;;;;5067136;28;20433;-74
2021/09/11 08:35:58;;;;;;;1.00;0.60;;;22.00;99.90;;;;;;5068172;28;20506;-75
2021/09/11 08:38:25;;;;;;;0.70;0.50;;;22.20;99.90;;;;;;5068455;28;20981;-74
2021/09/11 08:40:52;;;;;;;0.75;0.50;;;22.40;99.90;;;;;;5066680;28;20854;-75
2021/09/11 08:43:19;;;;;;;2.10;0.60;;;22.70;99.90;;;;;;5070007;28;20872;-75
2021/09/11 08:45:47;;;;;;;0.80;0.50;;;22.70;99.90;;;;;;5071489;28;20897;-75
2021/09/11 08:48:17;;;;;;;0.70;0.50;;;22.50;99.90;;;;;;5074268;28;20450;-74
2021/09/11 08:50:45;;;;;;;1.10;0.50;;;22.60;99.90;;;;;;5072864;28;20423;-75
2021/09/11 08:53:12;;;;;;;0.80;0.50;;;22.80;99.90;;;;;;5073005;28;20505;-74
2021/09/11 08:55:49;;;;;;;3.10;2.53;;;22.80;99.90;;;;;;5072876;28;20426;-74
2021/09/11 08:58:22;;;;;;;0.90;0.60;;;22.70;99.90;;;;;;5072805;28;21078;-74
2021/09/11 09:00:51;;;;;;;1.17;0.60;;;22.70;99.90;;;;;;5070621;28;20474;-74
2021/09/11 09:03:37;;;;;;;0.70;0.50;;;22.60;99.90;;;;;;5072210;28;20852;-74
2021/09/11 09:06:21;;;;;;;0.70;0.60;;;22.40;99.90;;;;;;5072766;28;20498;-75
2021/09/11 09:08:50;;;;;;;1.67;0.60;;;22.50;99.90;;;;;;5072727;28;20466;-75
2021/09/11 09:11:26;;;;;;;0.75;0.50;;;22.90;99.90;;;;;;5071424;28;20431;-75
2021/09/11 09:13:57;;;;;;;0.60;0.50;;;23.30;99.90;;;;;;5070719;28;20537;-74
2021/09/11 09:16:25;;;;;;;0.80;0.50;;;23.60;99.90;;;;;;5067538;28;21067;-74
2021/09/11 09:18:52;;;;;;;0.70;0.50;;;23.90;99.90;;;;;;5071559;28;20438;-73
2021/09/11 09:21:22;;;;;;;1.30;0.50;;;23.90;99.90;;;;;;5070737;28;20779;-73
2021/09/11 09:23:51;;;;;;;0.93;0.60;;;23.50;99.90;;;;;;5067048;28;20477;-74
2021/09/11 09:26:18;;;;;;;0.80;0.50;;;23.60;99.90;;;;;;5069667;28;20477;-73
2021/09/11 09:29:03;;;;;;;0.80;0.50;;;23.80;99.90;;;;;;5063246;28;20431;-74
2021/09/11 09:31:31;;;;;;;0.80;0.60;;;23.80;99.90;;;;;;5062396;28;20458;-73
2021/09/11 09:33:58;;;;;;;0.60;0.40;;;23.60;99.90;;;;;;5062561;28;20504;-74
2021/09/11 09:36:35;;;;;;;1.27;0.43;;;23.70;99.90;;;;;;5063966;28;20634;-75
2021/09/11 09:39:07;;;;;;;0.60;0.40;;;23.80;99.90;;;;;;5067439;28;20530;-73
2021/09/11 09:41:46;;;;;;;0.68;0.50;;;23.90;99.90;;;;;;5065201;28;20524;-74
2021/09/11 09:44:13;;;;;;;0.70;0.50;;;24.00;99.90;;;;;;5064908;28;20593;-74
2021/09/11 09:46:43;;;;;;;1.00;0.60;;;23.90;99.90;;;;;;5070888;28;20423;-74
2021/09/11 09:49:10;;;;;;;0.80;0.55;;;23.90;99.90;;;;;;5068259;28;20432;-73
2021/09/11 09:51:39;;;;;;;0.80;0.50;;;24.10;99.90;;;;;;5066536;28;20538;-74
2021/09/11 09:54:06;;;;;;;0.80;0.40;;;24.30;99.90;;;;;;5059629;28;20442;-71
2021/09/11 09:56:33;;;;;;;1.00;0.50;;;24.30;99.90;;;;;;5068292;28;20435;-73
2021/09/11 09:59:01;;;;;;;0.60;0.40;;;24.40;99.90;;;;;;5067836;28;20447;-73
2021/09/11 10:01:28;;;;;;;1.08;0.50;;;24.40;99.90;;;;;;5068699;28;20530;-73
2021/09/11 10:04:13;;;;;;;0.60;0.43;;;24.30;99.90;;;;;;5070762;28;20959;-73
2021/09/11 10:06:42;;;;;;;0.90;0.40;;;23.90;99.90;;;;;;5070847;28;20523;-74
2021/09/11 10:09:10;;;;;;;1.60;0.50;;;23.60;99.90;;;;;;5064805;28;20489;-73
2021/09/11 10:11:38;;;;;;;0.60;0.50;;;23.60;99.90;;;;;;5071662;28;20435;-74
2021/09/11 10:14:11;;;;;;;0.90;0.50;;;23.60;99.90;;;;;;5070265;28;20432;-74
2021/09/11 10:16:40;;;;;;;0.63;0.50;;;23.70;99.90;;;;;;5070649;28;20455;-75
2021/09/11 10:19:17;;;;;;;0.60;0.40;;;23.70;99.90;;;;;;5051765;28;20483;-75
2021/09/11 10:21:47;;;;;;;1.60;0.50;;;23.90;99.90;;;;;;5069910;28;20427;-75
2021/09/11 10:24:35;;;;;;;0.70;0.50;;;24.40;99.90;;;;;;5067818;28;20541;-75
2021/09/11 10:27:11;;;;;;;1.15;0.50;;;24.60;99.90;;;;;;5068484;28;20921;-75
2021/09/11 10:29:55;;;;;;;0.80;0.60;;;24.90;99.90;;;;;;5071062;28;20963;-74
2021/09/11 10:32:38;;;;;;;0.73;0.50;;;25.30;99.90;;;;;;5072215;28;20848;-76
2021/09/11 10:35:08;;;;;;;0.90;0.50;;;25.50;99.90;;;;;;5068316;28;20435;-73
2021/09/11 10:37:39;;;;;;;0.85;0.60;;;25.80;99.90;;;;;;5063698;28;20543;-74
2021/09/11 10:40:43;;;;;;;0.80;0.50;;;25.90;99.90;;;;;;5055507;28;20441;-75
2021/09/11 10:43:34;;;;;;;2.38;0.70;;;25.50;99.90;;;;;;5068660;28;20428;-74
2021/09/11 10:46:06;;;;;;;1.00;0.50;;;25.30;99.90;;;;;;5074342;28;20496;-75
2021/09/11 10:48:48;;;;;;;1.08;0.75;;;24.80;99.90;;;;;;5076416;28;20461;-76
2021/09/11 10:51:30;;;;;;;1.40;0.60;;;24.40;99.90;;;;;;5072843;28;20467;-75
2021/09/11 10:54:13;;;;;;;1.20;0.50;;;24.40;99.90;;;;;;5075195;28;20538;-75
2021/09/11 10:56:50;;;;;;;1.40;0.60;;;24.70;99.90;;;;;;5075212;28;20424;-76
2021/09/11 10:59:33;;;;;;;0.80;0.50;;;24.90;99.90;;;;;;5074934;28;20447;-76
2021/09/11 11:02:35;;;;;;;0.70;0.50;;;24.60;99.90;;;;;;5068784;28;20895;-75
2021/09/11 11:05:07;;;;;;;0.70;0.50;;;24.60;99.90;;;;;;5060791;28;20439;-78
2021/09/11 11:07:40;;;;;;;0.90;0.55;;;24.20;99.90;;;;;;5073891;28;20465;-75
2021/09/11 11:10:14;;;;;;;2.22;0.50;;;24.20;99.90;;;;;;5073391;28;20526;-76
2021/09/11 11:12:44;;;;;;;2.08;1.00;;;24.00;99.90;;;;;;5074581;28;20439;-74
2021/09/11 11:15:13;;;;;;;0.90;0.70;;;24.00;99.90;;;;;;5068870;28;20431;-74
2021/09/11 11:17:45;;;;;;;0.70;0.40;;;24.00;99.90;;;;;;5071932;28;20446;-75
2021/09/11 11:20:13;;;;;;;1.80;0.70;;;23.70;99.90;;;;;;5072467;28;20470;-73
2021/09/11 11:22:42;;;;;;;1.30;0.60;;;23.40;99.90;;;;;;5070572;28;20510;-72
2021/09/11 11:25:16;;;;;;;3.85;0.82;;;22.90;99.90;;;;;;5070809;28;20518;-70
2021/09/11 11:27:44;;;;;;;1.40;0.70;;;22.40;99.90;;;;;;5071249;28;21087;-73
2021/09/11 11:30:12;;;;;;;1.30;0.80;;;22.00;99.90;;;;;;5071873;28;20928;-72
2021/09/11 11:32:40;;;;;;;2.40;0.80;;;21.60;99.90;;;;;;5072384;28;20423;-75
2021/09/11 11:35:08;;;;;;;1.40;0.70;;;21.20;99.90;;;;;;5071919;28;20423;-75
2021/09/11 11:37:37;;;;;;;2.83;0.80;;;20.90;99.90;;;;;;5073490;28;20459;-75
2021/09/11 11:40:08;;;;;;;0.80;0.60;;;20.60;99.90;;;;;;5071995;28;20435;-75
2021/09/11 11:42:37;;;;;;;1.70;0.70;;;20.30;99.90;;;;;;5075865;28;20767;-75
2021/09/11 11:45:07;;;;;;;1.00;0.70;;;20.30;99.90;;;;;;5075408;28;20439;-74
2021/09/11 11:47:46;;;;;;;2.80;0.80;;;20.50;99.90;;;;;;5075214;28;20450;-74
2021/09/11 11:50:18;;;;;;;1.80;0.80;;;20.30;99.90;;;;;;5071300;28;20425;-73
2021/09/11 11:52:46;;;;;;;1.17;0.60;;;20.50;99.90;;;;;;5061042;28;20879;-74
2021/09/11 11:55:14;;;;;;;1.95;0.60;;;20.40;99.90;;;;;;5074726;28;20504;-74
2021/09/11 11:57:42;;;;;;;0.98;0.60;;;20.60;99.90;;;;;;5073760;28;20455;-71
2021/09/11 12:00:12;;;;;;;0.90;0.70;;;20.90;99.90;;;;;;5072566;28;20435;-73
2021/09/11 12:02:41;;;;;;;0.90;0.60;;;21.20;99.90;;;;;;5051609;28;20517;-73
2021/09/11 12:05:24;;;;;;;0.80;0.50;;;21.50;99.90;;;;;;5054827;28;20520;-73
2021/09/11 12:07:56;;;;;;;0.95;0.60;;;21.60;99.90;;;;;;5072594;28;20412;-74
2021/09/11 12:10:26;;;;;;;0.80;0.60;;;21.70;99.90;;;;;;5072629;28;20431;-73
2021/09/11 12:12:56;;;;;;;1.10;0.50;;;21.70;99.90;;;;;;5073509;28;20996;-73
2021/09/11 12:15:24;;;;;;;1.70;0.50;;;21.70;99.90;;;;;;5072186;28;20881;-74
2021/09/11 12:17:53;;;;;;;1.70;0.50;;;21.70;99.90;;;;;;5073454;28;20478;-74
2021/09/11 12:20:21;;;;;;;0.95;0.70;;;21.80;99.90;;;;;;5069948;28;20434;-73
2021/09/11 12:23:07;;;;;;;1.30;0.60;;;21.90;99.90;;;;;;5053461;28;20409;-72
2021/09/11 12:26:02;;;;;;;0.80;0.50;;;21.90;99.90;;;;;;5052328;28;20528;-74
2021/09/11 12:28:42;;;;;;;0.95;0.60;;;22.10;99.90;;;;;;5017461;28;20432;-74
2021/09/11 12:31:16;;;;;;;0.90;0.60;;;22.00;99.90;;;;;;5052720;28;20417;-74
2021/09/11 12:33:48;;;;;;;1.52;0.60;;;22.00;99.90;;;;;;5068110;28;20436;-74
2021/09/11 12:36:25;;;;;;;0.90;0.60;;;22.00;99.90;;;;;;5073750;28;20427;-74
2021/09/11 12:38:53;;;;;;;1.00;0.60;;;21.90;99.90;;;;;;5073495;28;20438;-74
2021/09/11 12:41:21;;;;;;;0.90;0.60;;;22.00;99.90;;;;;;5063882;28;20487;-74
2021/09/11 12:43:50;;;;;;;0.60;0.50;;;22.40;99.90;;;;;;5051003;28;20457;-75
2021/09/11 12:46:37;;;;;;;0.80;0.40;;;22.80;99.90;;;;;;5051791;28;20860;-75
2021/09/11 12:49:07;;;;;;;1.40;0.50;;;23.20;99.90;;;;;;5072084;28;20424;-74
2021/09/11 12:51:34;;;;;;;0.77;0.50;;;23.30;99.90;;;;;;5070615;28;20416;-74
2021/09/11 12:54:01;;;;;;;0.60;0.50;;;23.50;99.90;;;;;;5070679;28;20439;-74
2021/09/11 12:56:28;;;;;;;0.60;0.50;;;23.90;99.90;;;;;;5071629;28;20426;-73